Terminal Aerodrome Forecast
Issued by NWS

Home | Current Version | Previous Version | Text Only | Print | Product List | Glossary On
Versions: 1 2 3 4 5 6 7 8 9 10 11 12 13 14 15 16 17 18 19 20 21
000
FTUS41 KCAR 281700 RRA
TAFBHB
TAF
KBHB 281750Z 2818/2918 14009KT 3SM BR OVC002
     FM282100 12007KT 2SM BR OVC003
     FM290000 15010KT 1SM BR BKN002
     FM290500 18010KT 1/2SM FG BKN002
     FM290800 20010KT 1/4SM FG OVC001
     FM291200 21010KT 3SM BR SCT001 OVC003
     FM291400 22007KT P6SM SCT007 BKN020
     FM291700 25010G17KT P6SM BKN045
      AMD LTD TO CLD VIS AND WIND=

USA.gov is the U.S. government's official web portal to all federal, state and local government web resources and services.